Cielo Di Vaiano — D5AQ2 — position and weather

sailwx.info

Track history (hours):
 
Tides and Currents Weather Stations Pressure Air Temp Water Temp Dewpoint Dewpoint Depression Visibility Wind Speed Wind Dir Waves Ship Positions

Cielo Di Vaiano

Last reported at 2016-Sep-28 12:33 UTC. Time now 2016-Sep-28 13:34 UTC.
Position N 51°24' E 003°06'.

Length 183 m; draft 7.2 m.

Type: Cargo ship. MMSI: 636015421.

Date/timePositionNaut miles runAvg speedWind from/ knotsBaromVisibWave heightAir tempDewpointWater temp
2016-Sep-28 12:33N 51°24' E 003°06'36 9.0
2016-Sep-28 08:33N 51°22' E 004°04'11 2.3
2016-Sep-28 03:31N 51°17' E 004°21'0 0.0
2016-Sep-28 02:31N 51°17' E 004°21'0 0.0
2016-Sep-28 01:31N 51°17' E 004°21'0 0.0
2016-Sep-27 23:31N 51°17' E 004°21'0 0.0
2016-Sep-27 19:25N 51°17' E 004°21'0 0.0
2016-Sep-27 14:31N 51°17' E 004°21'0 0.0
2016-Sep-27 13:31N 51°17' E 004°21'0 0.0
2016-Sep-27 10:31N 51°17' E 004°21'0 0.0
2016-Sep-27 00:31N 51°17' E 004°21'0 0.0
2016-Sep-26 20:28N 51°17' E 004°21'0 0.0
2016-Sep-26 19:31N 51°17' E 004°21'0 0.0
2016-Sep-26 15:31N 51°17' E 004°21'0 0.0
2016-Sep-26 13:31N 51°17' E 004°21'0 0.0
2016-Sep-26 11:31N 51°17' E 004°21'0 0.0
2016-Sep-26 08:31N 51°17' E 004°21'0 0.0
2016-Sep-26 02:31N 51°17' E 004°21'0 0.0
2016-Sep-26 01:31N 51°17' E 004°21'0 0.0
2016-Sep-26 00:31N 51°17' E 004°21'0 0.0
2016-Sep-25 21:31N 51°17' E 004°21'0 0.0
2016-Sep-25 17:28N 51°17' E 004°21'0 0.0
2016-Sep-25 16:31N 51°17' E 004°21'0 0.0
2016-Sep-25 15:31N 51°17' E 004°21'0 0.0
2016-Sep-25 14:31N 51°17' E 004°21'0 0.0
2016-Sep-25 12:28N 51°17' E 004°21'0 0.0
2016-Sep-25 11:31N 51°17' E 004°21'0 0.0
2016-Sep-25 10:31N 51°17' E 004°21'0 0.0
2016-Sep-25 09:31N 51°17' E 004°21'0 0.0
2016-Sep-25 07:31N 51°17' E 004°21'0 0.0
2016-Sep-25 04:31N 51°17' E 004°21'0 0.0
2016-Sep-25 00:31N 51°17' E 004°21'0 0.0
2016-Sep-24 22:31N 51°17' E 004°21'0 0.0
2016-Sep-24 21:31N 51°17' E 004°21'0 0.0
2016-Sep-24 19:31N 51°17' E 004°21'0 0.0
2016-Sep-24 18:31N 51°17' E 004°21'0 0.0
2016-Sep-24 17:31N 51°17' E 004°21'0 0.0
2016-Sep-24 16:31N 51°17' E 004°21'0 0.0
2016-Sep-24 14:31N 51°17' E 004°21'0 0.0
2016-Sep-24 12:31N 51°17' E 004°21'0 0.0
2016-Sep-24 10:31N 51°17' E 004°21'0 0.0
2016-Sep-24 09:31N 51°17' E 004°21'0 0.0
2016-Sep-24 03:31N 51°17' E 004°21'0 0.0
2016-Sep-24 02:31N 51°17' E 004°21'0 0.0
2016-Sep-24 01:31N 51°17' E 004°21'0 0.0
2016-Sep-24 00:31N 51°17' E 004°21'0 0.0
2016-Sep-23 19:31N 51°17' E 004°21'0 0.0
2016-Sep-23 17:31N 51°17' E 004°21'0 0.0
2016-Sep-23 16:31N 51°17' E 004°21'0 0.0
2016-Sep-23 15:31N 51°17' E 004°21'0 0.0
2016-Sep-23 13:31N 51°17' E 004°21'0 0.0
2016-Sep-23 09:25N 51°17' E 004°21'0 0.0
2016-Sep-23 06:31N 51°17' E 004°21'0 0.0
2016-Sep-23 04:31N 51°17' E 004°21'0 0.0
2016-Sep-23 03:31N 51°17' E 004°21'0 0.0
2016-Sep-23 02:31N 51°17' E 004°21'0 0.0
2016-Sep-23 01:28N 51°17' E 004°21'0 0.0
2016-Sep-23 00:28N 51°17' E 004°21'0 0.0
2016-Sep-22 23:31N 51°17' E 004°21'0 0.0
2016-Sep-22 20:31N 51°17' E 004°21'34 4.3
2016-Sep-22 12:34N 51°25' E 003°27'76 9.5
2016-Sep-22 04:34N 50°58' E 001°33'1615.4
2016-Sep-22 03:31N 50°44' E 001°22'4113.9
2016-Sep-22 00:34N 50°24' E 000°25'1515.0
2016-Sep-21 23:34N 50°20' E 000°03'1514.6
2016-Sep-21 22:34N 50°17' W 000°19'4013.2
2016-Sep-21 19:33N 50°06' W 001°19'16611.9
2016-Sep-21 05:33N 48°57' W 005°12'43111.0
2016-Sep-19 14:32N 42°32' W 009°48'3311.0
2016-Sep-19 11:31N 41°58' W 009°48'2711.2
2016-Sep-19 09:04N 41°31' W 009°49'6811.3
2016-Sep-19 03:05N 40°23' W 009°50'711.4
2016-Sep-19 02:28N 40°16' W 009°49'7610.9
2016-Sep-18 19:33N 39°01' W 009°51'4210.6
2016-Sep-18 15:34N 38°19' W 009°43'1110.7
2016-Sep-18 14:34N 38°08' W 009°41'  
Track history (hours):
 
Tides and Currents Weather Stations Pressure Air Temp Water Temp Dewpoint Dewpoint Depression Visibility Wind Speed Wind Dir Waves Ship Positions

Cielo Di Vaiano

Last reported at 2016-Sep-28 12:33 UTC. Time now 2016-Sep-28 13:34 UTC.
Position N 51°24' E 003°06'.

Length 183 m; draft 7.2 m.

Type: Cargo ship. MMSI: 636015421.

Date/timePositionNaut miles runAvg speedWind from/ knotsBaromVisibWave heightAir tempDewpointWater temp
2016-Sep-28 12:33N 51°24' E 003°06'36 9.0
2016-Sep-28 08:33N 51°22' E 004°04'11 2.3
2016-Sep-28 03:31N 51°17' E 004°21'0 0.0
2016-Sep-28 02:31N 51°17' E 004°21'0 0.0
2016-Sep-28 01:31N 51°17' E 004°21'0 0.0
2016-Sep-27 23:31N 51°17' E 004°21'0 0.0
2016-Sep-27 19:25N 51°17' E 004°21'0 0.0
2016-Sep-27 14:31N 51°17' E 004°21'0 0.0
2016-Sep-27 13:31N 51°17' E 004°21'0 0.0
2016-Sep-27 10:31N 51°17' E 004°21'0 0.0
2016-Sep-27 00:31N 51°17' E 004°21'0 0.0
2016-Sep-26 20:28N 51°17' E 004°21'0 0.0
2016-Sep-26 19:31N 51°17' E 004°21'0 0.0
2016-Sep-26 15:31N 51°17' E 004°21'0 0.0
2016-Sep-26 13:31N 51°17' E 004°21'0 0.0
2016-Sep-26 11:31N 51°17' E 004°21'0 0.0
2016-Sep-26 08:31N 51°17' E 004°21'0 0.0
2016-Sep-26 02:31N 51°17' E 004°21'0 0.0
2016-Sep-26 01:31N 51°17' E 004°21'0 0.0
2016-Sep-26 00:31N 51°17' E 004°21'0 0.0
2016-Sep-25 21:31N 51°17' E 004°21'0 0.0
2016-Sep-25 17:28N 51°17' E 004°21'0 0.0
2016-Sep-25 16:31N 51°17' E 004°21'0 0.0
2016-Sep-25 15:31N 51°17' E 004°21'0 0.0
2016-Sep-25 14:31N 51°17' E 004°21'0 0.0
2016-Sep-25 12:28N 51°17' E 004°21'0 0.0
2016-Sep-25 11:31N 51°17' E 004°21'0 0.0
2016-Sep-25 10:31N 51°17' E 004°21'0 0.0
2016-Sep-25 09:31N 51°17' E 004°21'0 0.0
2016-Sep-25 07:31N 51°17' E 004°21'0 0.0
2016-Sep-25 04:31N 51°17' E 004°21'0 0.0
2016-Sep-25 00:31N 51°17' E 004°21'0 0.0
2016-Sep-24 22:31N 51°17' E 004°21'0 0.0
2016-Sep-24 21:31N 51°17' E 004°21'0 0.0
2016-Sep-24 19:31N 51°17' E 004°21'0 0.0
2016-Sep-24 18:31N 51°17' E 004°21'0 0.0
2016-Sep-24 17:31N 51°17' E 004°21'0 0.0
2016-Sep-24 16:31N 51°17' E 004°21'0 0.0
2016-Sep-24 14:31N 51°17' E 004°21'0 0.0
2016-Sep-24 12:31N 51°17' E 004°21'0 0.0
2016-Sep-24 10:31N 51°17' E 004°21'0 0.0
2016-Sep-24 09:31N 51°17' E 004°21'0 0.0
2016-Sep-24 03:31N 51°17' E 004°21'0 0.0
2016-Sep-24 02:31N 51°17' E 004°21'0 0.0
2016-Sep-24 01:31N 51°17' E 004°21'0 0.0
2016-Sep-24 00:31N 51°17' E 004°21'0 0.0
2016-Sep-23 19:31N 51°17' E 004°21'0 0.0
2016-Sep-23 17:31N 51°17' E 004°21'0 0.0
2016-Sep-23 16:31N 51°17' E 004°21'0 0.0
2016-Sep-23 15:31N 51°17' E 004°21'0 0.0
2016-Sep-23 13:31N 51°17' E 004°21'0 0.0
2016-Sep-23 09:25N 51°17' E 004°21'0 0.0
2016-Sep-23 06:31N 51°17' E 004°21'0 0.0
2016-Sep-23 04:31N 51°17' E 004°21'0 0.0
2016-Sep-23 03:31N 51°17' E 004°21'0 0.0
2016-Sep-23 02:31N 51°17' E 004°21'0 0.0
2016-Sep-23 01:28N 51°17' E 004°21'0 0.0
2016-Sep-23 00:28N 51°17' E 004°21'0 0.0
2016-Sep-22 23:31N 51°17' E 004°21'0 0.0
2016-Sep-22 20:31N 51°17' E 004°21'34 4.3
2016-Sep-22 12:34N 51°25' E 003°27'76 9.5
2016-Sep-22 04:34N 50°58' E 001°33'1615.4
2016-Sep-22 03:31N 50°44' E 001°22'4113.9
2016-Sep-22 00:34N 50°24' E 000°25'1515.0
2016-Sep-21 23:34N 50°20' E 000°03'1514.6
2016-Sep-21 22:34N 50°17' W 000°19'4013.2
2016-Sep-21 19:33N 50°06' W 001°19'16611.9
2016-Sep-21 05:33N 48°57' W 005°12'43111.0
2016-Sep-19 14:32N 42°32' W 009°48'3311.0
2016-Sep-19 11:31N 41°58' W 009°48'2711.2
2016-Sep-19 09:04N 41°31' W 009°49'6811.3
2016-Sep-19 03:05N 40°23' W 009°50'711.4
2016-Sep-19 02:28N 40°16' W 009°49'7610.9
2016-Sep-18 19:33N 39°01' W 009°51'4210.6
2016-Sep-18 15:34N 38°19' W 009°43'1110.7
2016-Sep-18 14:34N 38°08' W 009°41'  

Dump ship's entire track history